createdAt,value
2022-07-25T00:03:14.917Z,2.10
2022-07-25T00:07:20.045Z,2.42
2022-07-25T00:11:21.538Z,2.10
2022-07-25T00:15:23.037Z,3.80
2022-07-25T00:19:24.535Z,2.53
2022-07-25T00:23:26.075Z,2.53
2022-07-25T00:27:27.631Z,2.28
2022-07-25T00:31:29.164Z,2.15
2022-07-25T00:35:31.062Z,4.25
2022-07-25T00:39:32.590Z,2.67
2022-07-25T00:43:37.347Z,3.42
2022-07-25T00:47:38.869Z,2.72
2022-07-25T00:51:40.582Z,3.47
2022-07-25T00:55:42.374Z,2.92
2022-07-25T00:59:43.914Z,3.60
2022-07-25T01:03:45.397Z,2.20
2022-07-25T01:07:47.341Z,4.15
2022-07-25T01:11:48.931Z,2.47
2022-07-25T01:15:50.523Z,2.40
2022-07-25T01:19:53.252Z,3.67
2022-07-25T01:23:54.712Z,3.17
2022-07-25T01:27:57.733Z,1.98
2022-07-25T01:31:59.229Z,2.13
2022-07-25T01:36:01.069Z,2.30
2022-07-25T01:40:05.646Z,2.10
2022-07-25T01:44:07.567Z,3.72
2022-07-25T01:48:09.411Z,2.08
2022-07-25T01:52:11.861Z,3.35
2022-07-25T01:56:13.356Z,2.60
2022-07-25T02:00:16.413Z,2.55
2022-07-25T02:04:18.035Z,3.45
2022-07-25T02:08:19.518Z,2.88
2022-07-25T02:12:21.061Z,2.63
2022-07-25T02:16:28.699Z,3.03
2022-07-25T02:20:30.788Z,2.83
2022-07-25T02:24:32.595Z,3.08
2022-07-25T02:28:34.120Z,3.85
2022-07-25T02:32:35.641Z,2.70
2022-07-25T02:36:37.112Z,3.95
2022-07-25T02:40:38.577Z,6.15
2022-07-25T02:44:40.038Z,3.30
2022-07-25T02:48:41.509Z,6.15
2022-07-25T02:52:44.241Z,2.90
2022-07-25T02:56:45.684Z,2.58
2022-07-25T03:00:47.114Z,3.70
2022-07-25T03:04:48.612Z,2.35
2022-07-25T03:08:50.082Z,2.60
2022-07-25T03:12:51.575Z,2.40
2022-07-25T03:16:53.548Z,7.20
2022-07-25T03:20:55.102Z,2.17
2022-07-25T03:24:56.675Z,2.22
2022-07-25T03:28:58.300Z,3.50
2022-07-25T03:32:59.781Z,2.65
2022-07-25T03:37:01.414Z,2.42
2022-07-25T03:41:02.933Z,4.60
2022-07-25T03:45:05.625Z,2.22
2022-07-25T03:49:07.237Z,2.10
2022-07-25T03:53:10.252Z,2.10
2022-07-25T03:57:12.294Z,2.70
2022-07-25T04:01:13.920Z,2.20
2022-07-25T04:05:15.460Z,3.60
2022-07-25T04:09:17.083Z,2.55
2022-07-25T04:13:18.550Z,2.95
2022-07-25T04:17:20.069Z,4.18
2022-07-25T04:21:22.488Z,2.83
2022-07-25T04:25:23.948Z,2.75
2022-07-25T04:29:25.451Z,2.47
2022-07-25T04:33:27.434Z,2.50
2022-07-25T04:37:28.926Z,2.30
2022-07-25T04:41:30.524Z,2.78
2022-07-25T04:45:32.745Z,2.67
2022-07-25T04:49:34.288Z,3.38
2022-07-25T04:53:35.751Z,6.57
2022-07-25T04:57:37.637Z,6.40
2022-07-25T05:01:39.199Z,2.83
2022-07-25T05:05:40.690Z,3.58
2022-07-25T05:09:42.224Z,2.97
2022-07-25T05:13:44.187Z,4.95
2022-07-25T05:17:45.708Z,2.47
2022-07-25T05:21:47.141Z,5.05
2022-07-25T05:25:49.442Z,2.45
2022-07-25T05:29:52.679Z,4.80
2022-07-25T05:33:54.160Z,6.03
2022-07-25T05:37:55.672Z,2.95
2022-07-25T05:41:57.094Z,5.15
2022-07-25T05:46:03.050Z,2.97
2022-07-25T05:50:04.895Z,3.00
2022-07-25T05:54:06.926Z,5.38
2022-07-25T05:58:09.615Z,7.90
2022-07-25T06:02:11.492Z,3.35
2022-07-25T06:06:13.121Z,2.50
2022-07-25T06:10:14.614Z,3.30
2022-07-25T06:14:16.576Z,2.90
2022-07-25T06:18:19.438Z,8.45
2022-07-25T06:22:20.934Z,4.80
2022-07-25T06:26:22.446Z,3.63
2022-07-25T06:30:24.022Z,4.50
2022-07-25T06:34:28.608Z,3.72
2022-07-25T06:38:30.385Z,3.40
2022-07-25T06:42:33.334Z,3.60
2022-07-25T06:46:34.809Z,5.78
2022-07-25T06:50:36.347Z,5.22
2022-07-25T06:54:38.034Z,4.47
2022-07-25T06:58:39.542Z,3.75
2022-07-25T07:03:07.378Z,4.43
2022-07-25T07:07:08.925Z,5.63
2022-07-25T07:11:10.451Z,6.22
2022-07-25T07:15:12.901Z,3.53
2022-07-25T07:19:14.744Z,4.47
2022-07-25T07:23:16.964Z,3.45
2022-07-25T07:27:19.558Z,5.70
2022-07-25T07:31:21.112Z,4.32
2022-07-25T07:35:22.629Z,4.72
2022-07-25T07:39:24.123Z,6.22
2022-07-25T07:43:29.913Z,5.10
2022-07-25T07:47:31.579Z,5.82
2022-07-25T07:51:33.014Z,5.65
2022-07-25T07:55:48.721Z,5.07
2022-07-25T07:59:50.252Z,6.25
2022-07-25T08:03:51.743Z,5.55
2022-07-25T08:07:54.128Z,4.93
2022-07-25T08:11:55.571Z,5.03
2022-07-25T08:15:59.996Z,9.85
2022-07-25T08:20:27.983Z,6.82
2022-07-25T08:24:28.241Z,7.25
2022-07-25T08:28:30.219Z,8.13
2022-07-25T08:32:31.890Z,7.45
2022-07-25T08:36:34.874Z,7.57
2022-07-25T08:40:36.677Z,8.48
2022-07-25T08:44:42.492Z,6.10
2022-07-25T08:48:44.644Z,8.18
2022-07-25T08:52:48.161Z,8.88
2022-07-25T08:56:49.643Z,7.45
2022-07-25T09:00:51.134Z,7.55
2022-07-25T09:04:52.673Z,6.30
2022-07-25T09:08:56.347Z,6.07
2022-07-25T09:12:59.594Z,5.60
2022-07-25T09:17:06.624Z,8.45
2022-07-25T09:21:24.200Z,5.38
2022-07-25T09:25:31.282Z,6.28
2022-07-25T09:29:34.421Z,6.15
2022-07-25T09:33:56.431Z,6.25
2022-07-25T09:38:15.281Z,7.07
2022-07-25T09:42:27.855Z,7.05
2022-07-25T09:46:31.184Z,5.70
2022-07-25T09:50:33.444Z,7.35
2022-07-25T09:54:35.521Z,11.32
2022-07-25T09:58:36.998Z,6.07
2022-07-25T10:02:57.383Z,6.07
2022-07-25T10:07:14.732Z,7.20
2022-07-25T10:11:26.276Z,5.97
2022-07-25T10:15:40.305Z,6.03
2022-07-25T10:19:50.762Z,5.20
2022-07-25T10:24:13.886Z,6.05
2022-07-25T10:28:19.480Z,6.28
2022-07-25T10:32:26.123Z,6.05
2022-07-25T10:36:42.088Z,7.43
2022-07-25T10:40:46.450Z,6.07
2022-07-25T10:44:50.058Z,6.65
2022-07-25T10:48:59.944Z,6.85
2022-07-25T10:53:03.155Z,8.07
2022-07-25T10:57:07.042Z,7.30
2022-07-25T11:01:08.793Z,7.97
2022-07-25T11:05:10.383Z,7.50
2022-07-25T11:09:17.974Z,6.15
2022-07-25T11:13:20.491Z,6.43
2022-07-25T11:17:26.661Z,8.35
2022-07-25T11:21:28.164Z,6.50
2022-07-25T11:25:29.720Z,5.63
2022-07-25T11:29:31.189Z,6.35
2022-07-25T11:33:38.614Z,6.35
2022-07-25T11:37:42.304Z,5.97
2022-07-25T11:41:43.985Z,7.25
2022-07-25T11:46:07.673Z,5.88
2022-07-25T11:50:14.685Z,5.88
2022-07-25T11:54:16.666Z,9.57
2022-07-25T11:58:18.157Z,5.10
2022-07-25T12:02:32.871Z,7.65
2022-07-25T12:06:34.498Z,5.30
2022-07-25T12:10:37.561Z,6.63
2022-07-25T12:14:43.565Z,6.88
2022-07-25T12:18:45.047Z,6.10
2022-07-25T12:22:48.147Z,6.05
2022-07-25T12:26:49.619Z,6.15
2022-07-25T12:30:56.318Z,7.00
2022-07-25T12:34:59.455Z,5.82
2022-07-25T12:39:01.959Z,5.43
2022-07-25T12:43:06.713Z,6.47
2022-07-25T12:47:08.400Z,6.07
2022-07-25T12:51:09.844Z,5.18
2022-07-25T12:55:13.984Z,6.15
2022-07-25T12:59:16.136Z,7.30
2022-07-25T13:03:18.014Z,5.13
2022-07-25T13:07:19.647Z,5.70
2022-07-25T13:11:21.182Z,5.85
2022-07-25T13:15:23.420Z,5.18
2022-07-25T13:19:24.902Z,5.32
2022-07-25T13:23:26.393Z,8.60
2022-07-25T13:27:27.891Z,6.65
2022-07-25T13:31:29.515Z,8.88
2022-07-25T13:35:38.142Z,5.15
2022-07-25T13:39:42.223Z,5.03
2022-07-25T13:43:43.704Z,5.50
2022-07-25T13:47:45.406Z,5.85
2022-07-25T13:51:47.534Z,5.70
2022-07-25T13:55:49.515Z,5.32
2022-07-25T13:59:51.053Z,6.30
2022-07-25T14:03:52.615Z,5.25
2022-07-25T14:07:54.113Z,4.40
2022-07-25T14:11:55.638Z,5.72
2022-07-25T14:15:57.643Z,6.68
2022-07-25T14:19:59.377Z,4.93
2022-07-25T14:24:00.938Z,5.60
2022-07-25T14:28:02.584Z,5.38
2022-07-25T14:32:06.681Z,4.43
2022-07-25T14:36:09.918Z,5.10
2022-07-25T14:40:12.379Z,5.30
2022-07-25T14:44:13.986Z,5.47
2022-07-25T14:48:15.573Z,5.60
2022-07-25T14:52:17.111Z,5.45
2022-07-25T14:56:18.672Z,5.50
2022-07-25T15:00:20.321Z,5.68
2022-07-25T15:04:25.125Z,5.53
2022-07-25T15:08:26.677Z,6.78
2022-07-25T15:12:28.192Z,9.73
2022-07-25T15:16:29.949Z,5.63
2022-07-25T15:20:31.487Z,6.65
2022-07-25T15:24:44.476Z,6.75
2022-07-25T15:28:51.838Z,4.72
2022-07-25T15:32:53.309Z,5.28
2022-07-25T15:36:56.110Z,7.47
2022-07-25T15:40:58.370Z,4.75
2022-07-25T15:45:30.371Z,7.60
2022-07-25T15:49:29.416Z,10.93
2022-07-25T15:53:30.958Z,4.63
2022-07-25T15:57:32.534Z,5.00
2022-07-25T16:01:34.027Z,7.00
2022-07-25T16:05:37.026Z,6.93
2022-07-25T16:09:38.652Z,6.35
2022-07-25T16:13:40.510Z,5.05
2022-07-25T16:17:42.693Z,7.82
2022-07-25T16:21:44.329Z,5.15
2022-07-25T16:25:45.948Z,5.63
2022-07-25T16:29:47.419Z,6.07
2022-07-25T16:33:48.914Z,4.60
2022-07-25T16:37:50.889Z,5.07
2022-07-25T16:41:52.359Z,5.55
2022-07-25T16:45:53.924Z,6.07
2022-07-25T16:49:55.368Z,5.82
2022-07-25T16:53:56.794Z,5.38
2022-07-25T16:57:58.850Z,5.35
2022-07-25T17:02:00.434Z,7.20
2022-07-25T17:06:01.981Z,9.15
2022-07-25T17:10:03.859Z,7.90
2022-07-25T17:14:05.431Z,13.15
2022-07-25T17:18:06.901Z,6.35
2022-07-25T17:22:09.868Z,6.47
2022-07-25T17:26:11.387Z,13.35
2022-07-25T17:30:13.086Z,7.63
2022-07-25T17:34:14.692Z,6.95
2022-07-25T17:38:16.139Z,8.77
2022-07-25T17:42:22.234Z,7.22
2022-07-25T17:46:23.909Z,7.85
2022-07-25T17:50:29.344Z,4.63
2022-07-25T17:54:31.424Z,9.35
2022-07-25T17:58:33.022Z,6.13
2022-07-25T18:02:35.047Z,11.15
2022-07-25T18:06:36.829Z,7.13
2022-07-25T18:10:38.331Z,8.02
2022-07-25T18:14:39.797Z,7.78
2022-07-25T18:18:41.355Z,12.82
2022-07-25T18:22:43.097Z,10.90
2022-07-25T18:26:44.614Z,8.60
2022-07-25T18:30:46.161Z,8.68
2022-07-25T18:34:47.657Z,8.95
2022-07-25T18:38:49.322Z,11.60
2022-07-25T18:42:50.786Z,8.60
2022-07-25T18:46:52.315Z,9.10
2022-07-25T18:50:53.967Z,10.73
2022-07-25T18:54:55.494Z,10.38
2022-07-25T18:58:57.386Z,9.63
2022-07-25T19:02:58.858Z,9.82
2022-07-25T19:07:00.851Z,9.48
2022-07-25T19:11:02.395Z,10.20
2022-07-25T19:15:05.444Z,8.77
2022-07-25T19:19:07.315Z,10.02
2022-07-25T19:23:08.819Z,8.02
2022-07-25T19:27:11.083Z,9.27
2022-07-25T19:31:12.631Z,9.10
2022-07-25T19:35:14.499Z,8.95
2022-07-25T19:39:17.370Z,7.53
2022-07-25T19:43:18.933Z,13.70
2022-07-25T19:47:20.408Z,9.93
2022-07-25T19:51:21.944Z,9.98
2022-07-25T19:55:23.572Z,10.38
2022-07-25T19:59:25.031Z,9.70
2022-07-25T20:03:26.538Z,6.40
2022-07-25T20:07:28.179Z,9.35
2022-07-25T20:11:29.664Z,9.93
2022-07-25T20:15:31.266Z,8.35
2022-07-25T20:19:32.791Z,7.18
2022-07-25T20:23:34.314Z,7.10
2022-07-25T20:27:36.178Z,8.20
2022-07-25T20:31:37.814Z,6.80
2022-07-25T20:35:39.327Z,8.45
2022-07-25T20:39:40.846Z,8.95
2022-07-25T20:43:42.794Z,10.48
2022-07-25T20:47:44.276Z,9.23
2022-07-25T20:51:48.768Z,12.82
2022-07-25T20:55:53.978Z,9.53
2022-07-25T20:59:55.469Z,9.90
2022-07-25T21:03:57.031Z,8.10
2022-07-25T21:07:58.638Z,10.10
2022-07-25T21:12:01.412Z,11.52
2022-07-25T21:16:02.994Z,11.50
2022-07-25T21:20:05.941Z,9.55
2022-07-25T21:24:07.601Z,8.63
2022-07-25T21:28:09.096Z,9.25
2022-07-25T21:32:13.595Z,6.90
2022-07-25T21:36:15.304Z,11.30
2022-07-25T21:40:16.920Z,8.85
2022-07-25T21:44:18.720Z,8.07
2022-07-25T21:48:40.237Z,7.30
2022-07-25T21:52:44.397Z,9.07
2022-07-25T21:56:46.034Z,7.47
2022-07-25T22:00:47.536Z,11.10
2022-07-25T22:04:49.963Z,9.50
2022-07-25T22:08:51.501Z,9.18
2022-07-25T22:12:52.936Z,11.40
2022-07-25T22:16:54.604Z,10.48
2022-07-25T22:20:56.121Z,12.30
2022-07-25T22:24:57.586Z,11.88
2022-07-25T22:28:59.048Z,11.25
2022-07-25T22:33:00.512Z,10.57
2022-07-25T22:37:01.971Z,11.52
2022-07-25T22:41:03.621Z,12.63
2022-07-25T22:45:06.021Z,11.07
2022-07-25T22:49:07.902Z,9.93
2022-07-25T22:53:09.680Z,10.02
2022-07-25T22:57:11.203Z,11.82
2022-07-25T23:01:12.674Z,9.18
2022-07-25T23:05:14.267Z,9.25
2022-07-25T23:09:15.850Z,11.48
2022-07-25T23:13:17.353Z,14.13
2022-07-25T23:17:19.958Z,13.27
2022-07-25T23:21:21.597Z,12.75
2022-07-25T23:25:23.171Z,13.75
2022-07-25T23:29:24.666Z,13.48
2022-07-25T23:33:26.138Z,12.98
2022-07-25T23:37:27.755Z,14.15
2022-07-25T23:41:29.251Z,17.98
2022-07-25T23:45:30.780Z,12.98
2022-07-25T23:49:32.203Z,16.08
2022-07-25T23:53:33.715Z,18.88
2022-07-25T23:57:35.199Z,19.52
